sensor_id;sensor_type;location;lat;lon;timestamp;pressure;altitude;pressure_sealevel;temperature;humidity
75998;BME280;64685;48.762;44.822;2023-03-09T00:04:15;101050.22;;;5.43;76.96
75998;BME280;64685;48.762;44.822;2023-03-09T00:09:17;101041.06;;;5.38;77.69
75998;BME280;64685;48.762;44.822;2023-03-09T00:14:20;101041.34;;;5.31;77.25
75998;BME280;64685;48.762;44.822;2023-03-09T00:19:24;101040.53;;;5.31;78.02
75998;BME280;64685;48.762;44.822;2023-03-09T00:24:30;101037.78;;;5.26;77.41
75998;BME280;64685;48.762;44.822;2023-03-09T00:29:33;101010.69;;;5.18;77.50
75998;BME280;64685;48.762;44.822;2023-03-09T00:34:37;101018.41;;;5.16;77.41
75998;BME280;64685;48.762;44.822;2023-03-09T00:39:40;101019.81;;;5.13;78.14
75998;BME280;64685;48.762;44.822;2023-03-09T00:44:42;101012.88;;;5.06;77.86
75998;BME280;64685;48.762;44.822;2023-03-09T00:49:45;101010.13;;;5.06;78.12
75998;BME280;64685;48.762;44.822;2023-03-09T00:54:49;101012.34;;;5.09;77.84
75998;BME280;64685;48.762;44.822;2023-03-09T00:59:55;101008.19;;;5.16;78.59
75998;BME280;64685;48.762;44.822;2023-03-09T01:04:57;101013.44;;;5.18;78.86
75998;BME280;64685;48.762;44.822;2023-03-09T01:10:00;101006.81;;;5.14;78.34
75998;BME280;64685;48.762;44.822;2023-03-09T01:15:04;101013.72;;;5.06;78.94
75998;BME280;64685;48.762;44.822;2023-03-09T01:20:07;101018.13;;;5.17;78.83
75998;BME280;64685;48.762;44.822;2023-03-09T01:25:11;100970.81;;;5.09;78.83
75998;BME280;64685;48.762;44.822;2023-03-09T01:30:14;101006.53;;;5.05;78.56
75998;BME280;64685;48.762;44.822;2023-03-09T01:35:19;101001.88;;;4.96;78.97
75998;BME280;64685;48.762;44.822;2023-03-09T01:40:24;100988.28;;;4.94;78.88
75998;BME280;64685;48.762;44.822;2023-03-09T01:50:33;100985.53;;;4.89;79.71
75998;BME280;64685;48.762;44.822;2023-03-09T01:55:43;101003.78;;;5.00;79.74
75998;BME280;64685;48.762;44.822;2023-03-09T02:00:48;101005.72;;;5.00;79.21
75998;BME280;64685;48.762;44.822;2023-03-09T02:06:13;100985.78;;;5.08;79.78
75998;BME280;64685;48.762;44.822;2023-03-09T02:11:20;100995.47;;;5.10;79.91
75998;BME280;64685;48.762;44.822;2023-03-09T02:16:22;100976.94;;;5.01;79.91
75998;BME280;64685;48.762;44.822;2023-03-09T02:21:51;100996.00;;;5.07;79.88
75998;BME280;64685;48.762;44.822;2023-03-09T02:31:58;101012.03;;;5.25;80.11
75998;BME280;64685;48.762;44.822;2023-03-09T02:37:01;101030.88;;;5.18;80.03
75998;BME280;64685;48.762;44.822;2023-03-09T02:42:05;101025.56;;;5.32;80.13
75998;BME280;64685;48.762;44.822;2023-03-09T02:47:14;101017.03;;;5.23;80.34
75998;BME280;64685;48.762;44.822;2023-03-09T02:52:18;101006.28;;;5.02;80.19
75998;BME280;64685;48.762;44.822;2023-03-09T02:57:22;101000.16;;;5.05;79.91
75998;BME280;64685;48.762;44.822;2023-03-09T03:02:25;101001.28;;;4.99;79.94
75998;BME280;64685;48.762;44.822;2023-03-09T03:07:28;100989.94;;;5.05;79.24
75998;BME280;64685;48.762;44.822;2023-03-09T03:12:30;100991.88;;;4.95;79.61
75998;BME280;64685;48.762;44.822;2023-03-09T03:17:34;101001.59;;;4.92;79.22
75998;BME280;64685;48.762;44.822;2023-03-09T03:22:38;101014.91;;;4.70;79.90
75998;BME280;64685;48.762;44.822;2023-03-09T03:27:41;101021.22;;;4.66;79.99
75998;BME280;64685;48.762;44.822;2023-03-09T03:32:45;101027.59;;;4.61;80.05
75998;BME280;64685;48.762;44.822;2023-03-09T03:37:50;101032.88;;;4.68;80.57
75998;BME280;64685;48.762;44.822;2023-03-09T03:42:52;101026.22;;;4.59;80.73
75998;BME280;64685;48.762;44.822;2023-03-09T03:47:55;101018.75;;;4.59;80.62
75998;BME280;64685;48.762;44.822;2023-03-09T03:52:58;101011.84;;;4.62;81.04
75998;BME280;64685;48.762;44.822;2023-03-09T03:58:00;100998.28;;;4.65;80.95
75998;BME280;64685;48.762;44.822;2023-03-09T04:03:03;101004.09;;;4.59;81.01
75998;BME280;64685;48.762;44.822;2023-03-09T04:08:12;101032.56;;;4.69;81.00
75998;BME280;64685;48.762;44.822;2023-03-09T04:13:15;101037.28;;;4.69;80.87
75998;BME280;64685;48.762;44.822;2023-03-09T04:18:19;101012.94;;;4.71;80.70
75998;BME280;64685;48.762;44.822;2023-03-09T04:23:21;101021.50;;;4.74;80.74
75998;BME280;64685;48.762;44.822;2023-03-09T04:28:29;101038.69;;;4.76;80.96
75998;BME280;64685;48.762;44.822;2023-03-09T04:33:32;101035.63;;;4.78;81.07
75998;BME280;64685;48.762;44.822;2023-03-09T04:38:36;101025.94;;;4.90;80.88
75998;BME280;64685;48.762;44.822;2023-03-09T04:43:39;101021.50;;;4.99;80.49
75998;BME280;64685;48.762;44.822;2023-03-09T04:48:43;101032.84;;;4.98;80.48
75998;BME280;64685;48.762;44.822;2023-03-09T04:53:46;101045.03;;;4.92;80.45
75998;BME280;64685;48.762;44.822;2023-03-09T04:58:53;101043.63;;;5.09;80.93
75998;BME280;64685;48.762;44.822;2023-03-09T05:03:59;101031.19;;;5.02;80.50
75998;BME280;64685;48.762;44.822;2023-03-09T05:09:07;101017.34;;;5.07;80.67
75998;BME280;64685;48.762;44.822;2023-03-09T05:14:12;101022.25;;;5.35;80.28
75998;BME280;64685;48.762;44.822;2023-03-09T05:19:18;101021.66;;;5.43;80.10
75998;BME280;64685;48.762;44.822;2023-03-09T05:24:21;101022.81;;;5.37;79.90
75998;BME280;64685;48.762;44.822;2023-03-09T05:29:24;101003.16;;;5.28;80.14
75998;BME280;64685;48.762;44.822;2023-03-09T05:34:27;100996.50;;;5.39;80.24
75998;BME280;64685;48.762;44.822;2023-03-09T05:39:34;100991.16;;;5.58;79.29
75998;BME280;64685;48.762;44.822;2023-03-09T05:44:36;100998.25;;;5.79;79.50
75998;BME280;64685;48.762;44.822;2023-03-09T05:49:39;101005.16;;;5.86;78.67
75998;BME280;64685;48.762;44.822;2023-03-09T05:54:42;101008.66;;;6.07;78.12
75998;BME280;64685;48.762;44.822;2023-03-09T05:59:48;101000.16;;;6.37;77.54
75998;BME280;64685;48.762;44.822;2023-03-09T06:04:52;101007.69;;;6.65;77.21
75998;BME280;64685;48.762;44.822;2023-03-09T06:09:56;100994.06;;;6.97;77.16
75998;BME280;64685;48.762;44.822;2023-03-09T06:15:02;100993.53;;;7.47;75.81
75998;BME280;64685;48.762;44.822;2023-03-09T06:20:06;101013.16;;;7.79;73.78
75998;BME280;64685;48.762;44.822;2023-03-09T06:25:14;101007.56;;;8.02;72.38
75998;BME280;64685;48.762;44.822;2023-03-09T06:30:17;101017.06;;;8.38;71.20
75998;BME280;64685;48.762;44.822;2023-03-09T06:35:24;101001.91;;;8.81;69.39
75998;BME280;64685;48.762;44.822;2023-03-09T06:40:28;100990.72;;;9.13;67.88
75998;BME280;64685;48.762;44.822;2023-03-09T06:45:31;100996.94;;;10.18;64.66
75998;BME280;64685;48.762;44.822;2023-03-09T06:50:35;100985.59;;;10.50;63.45
75998;BME280;64685;48.762;44.822;2023-03-09T06:55:38;100990.75;;;10.43;63.23
75998;BME280;64685;48.762;44.822;2023-03-09T07:00:42;101002.75;;;11.62;59.92
75998;BME280;64685;48.762;44.822;2023-03-09T07:05:50;100987.41;;;12.07;59.95
75998;BME280;64685;48.762;44.822;2023-03-09T07:10:53;100977.91;;;12.51;57.39
75998;BME280;64685;48.762;44.822;2023-03-09T07:16:01;100988.09;;;13.06;55.90
75998;BME280;64685;48.762;44.822;2023-03-09T07:21:08;100980.78;;;13.31;54.71
75998;BME280;64685;48.762;44.822;2023-03-09T07:26:11;100981.50;;;13.11;55.53
75998;BME280;64685;48.762;44.822;2023-03-09T07:31:13;100989.75;;;12.56;55.84
75998;BME280;64685;48.762;44.822;2023-03-09T07:36:16;100978.53;;;12.65;55.56
75998;BME280;64685;48.762;44.822;2023-03-09T07:41:19;100957.28;;;12.81;55.36
75998;BME280;64685;48.762;44.822;2023-03-09T07:46:21;100946.06;;;12.72;56.16
75998;BME280;64685;48.762;44.822;2023-03-09T07:51:24;100945.38;;;13.09;55.58
75998;BME280;64685;48.762;44.822;2023-03-09T07:56:27;100937.19;;;12.70;55.48
75998;BME280;64685;48.762;44.822;2023-03-09T08:01:30;100930.59;;;12.66;55.73
75998;BME280;64685;48.762;44.822;2023-03-09T08:06:32;100928.25;;;12.68;55.28
75998;BME280;64685;48.762;44.822;2023-03-09T08:11:35;100941.47;;;12.25;55.71
75998;BME280;64685;48.762;44.822;2023-03-09T08:16:38;100938.66;;;11.52;56.48
75998;BME280;64685;48.762;44.822;2023-03-09T08:21:41;100942.94;;;11.11;56.55
75998;BME280;64685;48.762;44.822;2023-03-09T08:26:45;100947.72;;;10.88;57.55
75998;BME280;64685;48.762;44.822;2023-03-09T08:31:47;100948.63;;;10.75;58.32
75998;BME280;64685;48.762;44.822;2023-03-09T08:36:50;100951.59;;;10.79;59.37
75998;BME280;64685;48.762;44.822;2023-03-09T08:41:53;100931.06;;;10.75;59.85
75998;BME280;64685;48.762;44.822;2023-03-09T08:46:55;100942.78;;;10.41;59.19
75998;BME280;64685;48.762;44.822;2023-03-09T08:51:58;100956.78;;;10.28;59.83
75998;BME280;64685;48.762;44.822;2023-03-09T08:57:00;100944.41;;;10.20;60.96
75998;BME280;64685;48.762;44.822;2023-03-09T09:02:03;100958.94;;;9.95;61.07
75998;BME280;64685;48.762;44.822;2023-03-09T09:07:07;100946.88;;;10.22;61.76
75998;BME280;64685;48.762;44.822;2023-03-09T09:12:10;100933.59;;;10.41;62.03
75998;BME280;64685;48.762;44.822;2023-03-09T09:17:13;100932.34;;;10.47;61.21
75998;BME280;64685;48.762;44.822;2023-03-09T09:22:16;100933.00;;;10.74;60.82
75998;BME280;64685;48.762;44.822;2023-03-09T09:27:18;100936.06;;;11.17;60.75
75998;BME280;64685;48.762;44.822;2023-03-09T09:32:21;100926.69;;;11.60;60.34
75998;BME280;64685;48.762;44.822;2023-03-09T09:37:23;100934.34;;;11.85;59.03
75998;BME280;64685;48.762;44.822;2023-03-09T09:42:27;100922.31;;;11.76;58.08
75998;BME280;64685;48.762;44.822;2023-03-09T09:47:32;100911.63;;;11.87;57.44
75998;BME280;64685;48.762;44.822;2023-03-09T09:53:11;100900.13;;;11.97;57.20
75998;BME280;64685;48.762;44.822;2023-03-09T10:03:35;100900.28;;;12.09;57.25
75998;BME280;64685;48.762;44.822;2023-03-09T10:08:59;100885.16;;;12.01;58.05
75998;BME280;64685;48.762;44.822;2023-03-09T10:19:42;100864.59;;;14.30;54.87
75998;BME280;64685;48.762;44.822;2023-03-09T10:24:45;100855.84;;;14.32;55.58
75998;BME280;64685;48.762;44.822;2023-03-09T10:35:28;100853.00;;;13.42;55.59
75998;BME280;64685;48.762;44.822;2023-03-09T10:40:48;100861.84;;;14.01;54.43
75998;BME280;64685;48.762;44.822;2023-03-09T10:45:51;100855.84;;;14.32;53.16
75998;BME280;64685;48.762;44.822;2023-03-09T10:51:03;100827.28;;;14.42;52.42
75998;BME280;64685;48.762;44.822;2023-03-09T10:56:23;100818.22;;;15.25;51.53
75998;BME280;64685;48.762;44.822;2023-03-09T11:01:26;100820.94;;;15.46;50.31
75998;BME280;64685;48.762;44.822;2023-03-09T11:06:36;100791.44;;;16.34;48.47
75998;BME280;64685;48.762;44.822;2023-03-09T11:11:40;100800.53;;;16.55;46.38
75998;BME280;64685;48.762;44.822;2023-03-09T11:16:50;100791.50;;;15.83;46.58
75998;BME280;64685;48.762;44.822;2023-03-09T11:27:02;100778.69;;;16.25;45.57
75998;BME280;64685;48.762;44.822;2023-03-09T11:32:11;100771.81;;;16.38;45.69
75998;BME280;64685;48.762;44.822;2023-03-09T11:37:37;100747.56;;;16.06;46.98
75998;BME280;64685;48.762;44.822;2023-03-09T11:42:51;100757.25;;;16.20;46.12
75998;BME280;64685;48.762;44.822;2023-03-09T11:53:30;100768.88;;;15.16;48.37
75998;BME280;64685;48.762;44.822;2023-03-09T11:58:36;100771.88;;;14.87;48.40
75998;BME280;64685;48.762;44.822;2023-03-09T12:03:46;100765.47;;;14.42;49.35
75998;BME280;64685;48.762;44.822;2023-03-09T12:08:53;100747.16;;;14.24;50.16
75998;BME280;64685;48.762;44.822;2023-03-09T12:14:34;100741.13;;;14.13;50.70
75998;BME280;64685;48.762;44.822;2023-03-09T12:19:44;100733.47;;;14.02;51.05
75998;BME280;64685;48.762;44.822;2023-03-09T12:25:21;100732.56;;;13.77;51.88
75998;BME280;64685;48.762;44.822;2023-03-09T12:35:57;100730.28;;;13.91;52.32
75998;BME280;64685;48.762;44.822;2023-03-09T12:41:00;100703.34;;;13.58;52.91
75998;BME280;64685;48.762;44.822;2023-03-09T12:46:37;100714.50;;;13.46;53.56
75998;BME280;64685;48.762;44.822;2023-03-09T12:51:42;100712.66;;;13.50;53.52
75998;BME280;64685;48.762;44.822;2023-03-09T12:56:46;100716.84;;;13.44;53.64
75998;BME280;64685;48.762;44.822;2023-03-09T13:01:49;100702.47;;;13.66;53.28
75998;BME280;64685;48.762;44.822;2023-03-09T13:06:56;100710.88;;;13.66;53.03
75998;BME280;64685;48.762;44.822;2023-03-09T13:12:32;100706.84;;;13.55;52.68
75998;BME280;64685;48.762;44.822;2023-03-09T13:17:36;100698.63;;;13.50;52.84
75998;BME280;64685;48.762;44.822;2023-03-09T13:22:42;100712.13;;;13.36;53.19
75998;BME280;64685;48.762;44.822;2023-03-09T13:27:52;100707.59;;;13.23;53.14
75998;BME280;64685;48.762;44.822;2023-03-09T13:33:14;100706.66;;;13.19;53.67
75998;BME280;64685;48.762;44.822;2023-03-09T13:38:23;100698.50;;;13.06;54.40
75998;BME280;64685;48.762;44.822;2023-03-09T13:43:31;100708.75;;;12.93;54.65
75998;BME280;64685;48.762;44.822;2023-03-09T13:48:42;100705.84;;;12.81;55.28
75998;BME280;64685;48.762;44.822;2023-03-09T13:53:46;100716.28;;;12.72;55.56
75998;BME280;64685;48.762;44.822;2023-03-09T13:58:48;100716.66;;;12.62;55.52
75998;BME280;64685;48.762;44.822;2023-03-09T14:03:53;100711.25;;;12.57;55.61
75998;BME280;64685;48.762;44.822;2023-03-09T14:09:12;100719.00;;;12.52;56.59
75998;BME280;64685;48.762;44.822;2023-03-09T14:14:22;100718.53;;;12.50;56.75
75998;BME280;64685;48.762;44.822;2023-03-09T14:19:28;100721.16;;;12.55;57.25
75998;BME280;64685;48.762;44.822;2023-03-09T14:24:33;100718.31;;;12.63;57.73
75998;BME280;64685;48.762;44.822;2023-03-09T14:29:36;100717.16;;;12.64;57.59
75998;BME280;64685;48.762;44.822;2023-03-09T14:34:39;100709.47;;;12.44;58.15
75998;BME280;64685;48.762;44.822;2023-03-09T14:39:41;100707.44;;;12.24;58.87
75998;BME280;64685;48.762;44.822;2023-03-09T14:44:47;100710.56;;;12.14;59.12
75998;BME280;64685;48.762;44.822;2023-03-09T14:50:00;100725.25;;;12.03;59.07
75998;BME280;64685;48.762;44.822;2023-03-09T14:55:11;100721.97;;;11.92;59.56
75998;BME280;64685;48.762;44.822;2023-03-09T15:00:15;100717.25;;;11.76;59.97
75998;BME280;64685;48.762;44.822;2023-03-09T15:05:21;100727.28;;;11.68;60.47
75998;BME280;64685;48.762;44.822;2023-03-09T15:10:25;100726.25;;;11.56;59.96
75998;BME280;64685;48.762;44.822;2023-03-09T15:15:28;100725.28;;;11.52;60.34
75998;BME280;64685;48.762;44.822;2023-03-09T15:20:31;100732.34;;;11.32;60.37
75998;BME280;64685;48.762;44.822;2023-03-09T15:25:45;100734.94;;;11.20;60.91
75998;BME280;64685;48.762;44.822;2023-03-09T15:30:50;100739.22;;;11.09;61.88
75998;BME280;64685;48.762;44.822;2023-03-09T15:35:52;100736.06;;;11.02;62.18
75998;BME280;64685;48.762;44.822;2023-03-09T15:40:56;100737.34;;;10.88;62.34
75998;BME280;64685;48.762;44.822;2023-03-09T15:46:02;100736.19;;;10.80;62.94
75998;BME280;64685;48.762;44.822;2023-03-09T15:51:05;100739.41;;;10.65;63.32
75998;BME280;64685;48.762;44.822;2023-03-09T15:56:09;100749.63;;;10.70;63.36
75998;BME280;64685;48.762;44.822;2023-03-09T16:01:16;100750.56;;;10.65;63.41
75998;BME280;64685;48.762;44.822;2023-03-09T16:06:21;100755.81;;;10.58;64.11
75998;BME280;64685;48.762;44.822;2023-03-09T16:11:25;100753.91;;;10.37;64.16
75998;BME280;64685;48.762;44.822;2023-03-09T16:16:27;100762.59;;;10.35;65.12
75998;BME280;64685;48.762;44.822;2023-03-09T16:21:30;100755.50;;;10.29;65.86
75998;BME280;64685;48.762;44.822;2023-03-09T16:26:32;100750.06;;;10.24;66.45
75998;BME280;64685;48.762;44.822;2023-03-09T16:31:35;100751.47;;;10.13;66.15
75998;BME280;64685;48.762;44.822;2023-03-09T16:36:37;100744.38;;;10.07;66.41
75998;BME280;64685;48.762;44.822;2023-03-09T16:41:40;100755.94;;;10.01;67.62
75998;BME280;64685;48.762;44.822;2023-03-09T16:46:42;100735.75;;;9.95;68.05
75998;BME280;64685;48.762;44.822;2023-03-09T16:51:45;100734.53;;;9.88;67.98
75998;BME280;64685;48.762;44.822;2023-03-09T16:56:48;100732.59;;;9.88;68.70
75998;BME280;64685;48.762;44.822;2023-03-09T17:01:50;100741.94;;;9.92;68.14
75998;BME280;64685;48.762;44.822;2023-03-09T17:06:53;100744.47;;;10.02;68.70
75998;BME280;64685;48.762;44.822;2023-03-09T17:11:55;100743.03;;;10.05;69.41
75998;BME280;64685;48.762;44.822;2023-03-09T17:17:00;100738.31;;;10.05;69.43
75998;BME280;64685;48.762;44.822;2023-03-09T17:22:03;100749.78;;;10.04;69.21
75998;BME280;64685;48.762;44.822;2023-03-09T17:27:05;100757.41;;;9.98;69.29
75998;BME280;64685;48.762;44.822;2023-03-09T17:32:08;100754.06;;;9.88;69.42
75998;BME280;64685;48.762;44.822;2023-03-09T17:37:11;100752.66;;;9.77;69.99
75998;BME280;64685;48.762;44.822;2023-03-09T17:42:13;100738.41;;;9.56;70.41
75998;BME280;64685;48.762;44.822;2023-03-09T17:47:16;100738.22;;;9.53;71.21
75998;BME280;64685;48.762;44.822;2023-03-09T17:52:18;100736.81;;;9.42;71.04
75998;BME280;64685;48.762;44.822;2023-03-09T17:57:21;100744.91;;;9.30;71.11
75998;BME280;64685;48.762;44.822;2023-03-09T18:02:24;100733.38;;;9.23;71.91
75998;BME280;64685;48.762;44.822;2023-03-09T18:07:26;100739.66;;;9.15;72.21
75998;BME280;64685;48.762;44.822;2023-03-09T18:12:29;100729.88;;;9.04;72.51
75998;BME280;64685;48.762;44.822;2023-03-09T18:17:31;100729.06;;;9.03;72.82
75998;BME280;64685;48.762;44.822;2023-03-09T18:22:34;100733.91;;;8.98;72.94
75998;BME280;64685;48.762;44.822;2023-03-09T18:27:36;100732.59;;;8.95;73.08
75998;BME280;64685;48.762;44.822;2023-03-09T18:32:40;100732.19;;;8.88;73.40
75998;BME280;64685;48.762;44.822;2023-03-09T18:37:46;100743.53;;;8.78;74.05
75998;BME280;64685;48.762;44.822;2023-03-09T18:42:50;100744.97;;;8.76;73.87
75998;BME280;64685;48.762;44.822;2023-03-09T18:47:52;100741.50;;;8.70;74.57
75998;BME280;64685;48.762;44.822;2023-03-09T18:52:55;100736.97;;;8.61;74.71
75998;BME280;64685;48.762;44.822;2023-03-09T18:57:57;100733.94;;;8.57;74.87
75998;BME280;64685;48.762;44.822;2023-03-09T19:03:00;100734.28;;;8.56;75.27
75998;BME280;64685;48.762;44.822;2023-03-09T19:08:02;100724.50;;;8.58;75.26
75998;BME280;64685;48.762;44.822;2023-03-09T19:13:06;100718.91;;;8.45;75.28
75998;BME280;64685;48.762;44.822;2023-03-09T19:18:09;100730.16;;;8.53;75.62
75998;BME280;64685;48.762;44.822;2023-03-09T19:23:11;100729.41;;;8.48;75.76
75998;BME280;64685;48.762;44.822;2023-03-09T19:28:14;100731.19;;;8.44;76.02
75998;BME280;64685;48.762;44.822;2023-03-09T19:33:16;100729.50;;;8.43;76.21
75998;BME280;64685;48.762;44.822;2023-03-09T19:38:19;100731.19;;;8.44;76.10
75998;BME280;64685;48.762;44.822;2023-03-09T19:43:21;100723.03;;;8.47;76.28
75998;BME280;64685;48.762;44.822;2023-03-09T19:48:24;100718.47;;;8.51;75.97
75998;BME280;64685;48.762;44.822;2023-03-09T19:53:26;100723.84;;;8.61;76.27
75998;BME280;64685;48.762;44.822;2023-03-09T19:58:29;100714.47;;;8.57;76.54
75998;BME280;64685;48.762;44.822;2023-03-09T20:03:32;100722.72;;;8.62;75.99
75998;BME280;64685;48.762;44.822;2023-03-09T20:08:35;100713.13;;;8.68;75.24
75998;BME280;64685;48.762;44.822;2023-03-09T20:13:37;100701.47;;;8.80;75.81
75998;BME280;64685;48.762;44.822;2023-03-09T20:18:40;100695.88;;;8.93;75.59
75998;BME280;64685;48.762;44.822;2023-03-09T20:23:42;100681.31;;;8.96;75.62
75998;BME280;64685;48.762;44.822;2023-03-09T20:28:45;100685.97;;;9.01;75.18
75998;BME280;64685;48.762;44.822;2023-03-09T20:33:49;100677.75;;;9.18;74.91
75998;BME280;64685;48.762;44.822;2023-03-09T20:38:51;100672.56;;;9.25;74.58
75998;BME280;64685;48.762;44.822;2023-03-09T20:43:54;100678.59;;;9.40;74.03
75998;BME280;64685;48.762;44.822;2023-03-09T20:48:59;100669.25;;;9.45;74.39
75998;BME280;64685;48.762;44.822;2023-03-09T20:54:03;100670.47;;;9.52;73.98
75998;BME280;64685;48.762;44.822;2023-03-09T20:59:07;100669.00;;;9.55;73.67
75998;BME280;64685;48.762;44.822;2023-03-09T21:04:09;100657.00;;;9.46;73.58
75998;BME280;64685;48.762;44.822;2023-03-09T21:09:12;100656.16;;;9.45;73.52
75998;BME280;64685;48.762;44.822;2023-03-09T21:14:16;100647.06;;;9.31;73.63
75998;BME280;64685;48.762;44.822;2023-03-09T21:19:21;100652.22;;;9.24;73.99
75998;BME280;64685;48.762;44.822;2023-03-09T21:24:25;100648.78;;;9.05;73.90
75998;BME280;64685;48.762;44.822;2023-03-09T21:29:27;100650.34;;;8.98;74.24
75998;BME280;64685;48.762;44.822;2023-03-09T21:34:30;100643.69;;;8.85;74.62
75998;BME280;64685;48.762;44.822;2023-03-09T21:39:32;100646.16;;;8.87;75.10
75998;BME280;64685;48.762;44.822;2023-03-09T21:44:36;100646.28;;;8.82;75.08
75998;BME280;64685;48.762;44.822;2023-03-09T21:49:38;100652.16;;;8.80;74.75
75998;BME280;64685;48.762;44.822;2023-03-09T21:54:41;100644.81;;;8.84;75.89
75998;BME280;64685;48.762;44.822;2023-03-09T21:59:44;100654.00;;;8.85;75.56
75998;BME280;64685;48.762;44.822;2023-03-09T22:04:47;100649.13;;;8.90;75.56
75998;BME280;64685;48.762;44.822;2023-03-09T22:09:49;100646.56;;;8.80;75.80
75998;BME280;64685;48.762;44.822;2023-03-09T22:14:54;100654.53;;;8.73;75.93
75998;BME280;64685;48.762;44.822;2023-03-09T22:19:57;100657.25;;;8.65;75.89
75998;BME280;64685;48.762;44.822;2023-03-09T22:24:59;100653.22;;;8.57;76.13
75998;BME280;64685;48.762;44.822;2023-03-09T22:30:04;100649.53;;;8.48;76.39
75998;BME280;64685;48.762;44.822;2023-03-09T22:35:10;100657.50;;;8.41;76.63
75998;BME280;64685;48.762;44.822;2023-03-09T22:40:13;100647.72;;;8.30;76.54
75998;BME280;64685;48.762;44.822;2023-03-09T22:45:15;100649.56;;;8.21;76.79
75998;BME280;64685;48.762;44.822;2023-03-09T22:50:18;100646.94;;;8.11;76.82
75998;BME280;64685;48.762;44.822;2023-03-09T22:55:20;100646.03;;;8.02;77.34
75998;BME280;64685;48.762;44.822;2023-03-09T23:00:23;100639.81;;;7.92;77.68
75998;BME280;64685;48.762;44.822;2023-03-09T23:05:26;100632.09;;;7.89;78.02
75998;BME280;64685;48.762;44.822;2023-03-09T23:10:28;100627.44;;;7.84;77.60
75998;BME280;64685;48.762;44.822;2023-03-09T23:15:31;100632.09;;;7.75;77.76
75998;BME280;64685;48.762;44.822;2023-03-09T23:20:33;100621.34;;;7.69;78.38
75998;BME280;64685;48.762;44.822;2023-03-09T23:25:36;100617.84;;;7.63;77.95
75998;BME280;64685;48.762;44.822;2023-03-09T23:30:39;100608.78;;;7.58;77.92
75998;BME280;64685;48.762;44.822;2023-03-09T23:35:41;100602.59;;;7.47;78.83
75998;BME280;64685;48.762;44.822;2023-03-09T23:40:44;100606.81;;;7.45;78.99
75998;BME280;64685;48.762;44.822;2023-03-09T23:45:47;100598.03;;;7.38;79.03
75998;BME280;64685;48.762;44.822;2023-03-09T23:50:50;100586.19;;;7.32;78.82
75998;BME280;64685;48.762;44.822;2023-03-09T23:55:52;100578.78;;;7.28;78.96
